Pagina principale
METAR-TAF:

METAR-TAF

Aeroporti :

Morrisville-Stowe State Airport

Morrisville, Vermont, Stati Uniti

latitudine: 44-32-10N, longitudine: 072-36-58W, altezza: 223 m

Osservazione

Il bollettino è stato emesso 1 ora e 10 minuti fa, alle 13:54 UTC
Vento 5 kt da sud
Temperature 4°C
Umidità 100%
Pressione 1017 hPa
Visibilità: 16.1 km
Poco nuvoloso ad un'altezza di 7000 ft
Nuvoloso ad un'altezza di 11000 ft

METAR: KMVL 151354Z AUTO 17005KT 10SM FEW070 BKN110 04/04 A3003 RMK AO2 RAB31E45 SLP178 P0000 T00440044

Ora: 11:04 (15:04 UTC)


TAF: mancante

Osservazioni e previsioni meteorologiche di più di 4000 aeroporti (messaggi METAR e TAF).

Le stazioni disponibili sono rappresentate dai dischi gialli e rossi sulla carta.

Puntare il mouse per vedere il nome della stazione.

Clicca sopra per visualizzare le osservazioni e previsioni meteorologiche.

Per cambiare la mappa : fare clic sui pulsanti verdi con una croce nera per ingrandire, il pulsante verde con un trattino per diminuire, o sulla freccia verde per le mappe adiacenti.


METAR-TAF: